x

Molasses Reef, Fl (mlrf1) Weather Station

2:00pm - Wed 20th Sep 2017 All times are EDT. -4 hours from GMT.

  • Wind
  • Sea Temp 85°f
  • Air Temp 85°f
  • Sea Pressure 1015.3mb
  • Molasses Reef, Fl
  • Molasses Reef, Fl

More Historic Weather Station data

Upgrade to MSW Pro to gain access to the past 30 days of data for over 8000 Wavebouys and Weather Stations around the globe.

Join

Comparision Forecast

View Surf forecast
   
Wed 09/20 2:00pm  -  1 mph 1015.3mb 85f 85f
12:00pm 3 5 mph 1016mb 85f 83f
9:00am  -  1 mph 1015.8mb 85f 85f
8:00am 2 3 mph 1015.4mb 85f 83f
7:00am  -  1 mph 1014.8mb 85f 82f
5:00am  -  1 mph 1014.2mb 85f 82f
2:00am 1
mph
- - 83f
1:00am 2 3 mph 1014.7mb 86f 83f
12:00am 3 5 mph 1014.9mb 85f 83f
Tue 09/19 11:00pm 2 2 mph 1014.5mb 85f 83f
10:00pm 2 3 mph 1014.2mb 85f 84f
9:00pm 1 1 mph 1014mb 85f 84f
8:00pm 2 2 mph 1013.6mb 85f 84f
7:00pm 2 3 mph 1013.1mb 85f 84f
6:00pm 5 6 mph 1012.9mb 85f 85f
5:00pm 10 11 mph 1012.9mb 85f 85f
1:00pm 3 5 mph 1013.8mb 85f 84f
12:00pm 3 5 mph 1014.2mb 85f 83f
11:00am 1 2 mph 1014.4mb 85f 83f
8:00am 5 6 mph 1013.2mb 85f 82f
7:00am 1 2 mph 1013.5mb 85f 81f
6:00am 1 2 mph 1013.2mb 85f 82f
5:00am  -  1 mph 1012.8mb 85f 82f
4:00am 2 2 mph 1012.4mb 85f 82f
3:00am 2 3 mph 1012.5mb 85f 82f
2:00am 7 8 mph 1012.7mb 85f 83f
1:00am 9 10 mph 1013.2mb 85f 83f
12:00am 10 11 mph 1013.5mb 85f 83f
Mon 09/18 11:00pm 13 15 mph 1013.6mb 85f 83f
10:00pm 13 14 mph 1013.3mb 85f 84f
9:00pm 3 5 mph 1012.9mb 85f 85f
8:00pm 6 7 mph 1012.6mb 85f 85f
7:00pm 1 2 mph 1012.2mb 85f 85f
4:00pm 6 6 mph 1012.6mb 85f 84f
1:00pm  -  1 mph 1014.6mb 85f 84f
12:00pm 2 3 mph 1015mb 85f 82f
11:00am 5 5 mph 1015.2mb 85f 82f
9:00am 5 7 mph 1014.4mb 85f 81f
3:00am  -  mph 1013.3mb 85f -
2:00am 13 14 mph 1013.8mb 85f 83f
1:00am 16 18 mph 1014.1mb 86f 83f
12:00am 16 17 mph 1014.4mb 86f 84f
Sun 09/17 11:00pm 2 5 mph 1014.6mb 86f 83f
10:00pm 8 9 mph 1014.5mb 85f 83f
9:00pm 7 8 mph 1014.2mb 85f 84f
8:00pm 8 9 mph 1013.6mb 85f 84f
7:00pm 8 10 mph 1013mb 86f 85f
6:00pm 14 15 mph 1012.8mb 86f 87f
5:00pm 11 13 mph 1013mb 86f 87f
4:00pm 8 9 mph 1013.1mb 86f 86f
3:00pm 1 2 mph 1013.9mb 86f 85f
2:00pm  -  1 mph 1014.4mb 86f 85f
1:00pm 5 6 mph 1015mb 86f 85f
12:00pm 9 10 mph 1015.6mb 86f 84f
11:00am 13 14 mph 1016mb 85f 83f
10:00am 13 14 mph 1015.6mb 85f 82f
9:00am 10 11 mph 1015.1mb 85f 82f
8:00am 10 13 mph 1014.7mb 85f 82f
7:00am 11 13 mph 1014.4mb 85f 81f
6:00am 10 11 mph 1013.5mb 85f 81f
5:00am 9 10 mph 1013mb 85f 82f
4:00am 13 13 mph 1013mb 85f 83f
3:00am 11 13 mph 1013.6mb 85f 83f
2:00am 15 16 mph 1014mb 85f 83f
1:00am 16 18 mph 1014.4mb 85f 84f
12:00am 16 17 mph 1014.5mb 85f 84f
Sat 09/16 11:00pm 15 16 mph 1014.5mb 85f 84f
10:00pm 17 20 mph 1014.6mb 85f 84f
9:00pm 17 21 mph 1014.2mb 85f 84f